Strona główna
METAR-TAF:

METAR-TAF

Lotnisko :

Port lotniczy Dallas-Fort Worth

Dallas / Fort Worth, Teksas, Stany Zjednoczone

Szerokość geograficzna: 32-53-49N, Długość geograficzna: 097-01-19W, wysokość: 183 m

Aktualna obserwacja pogody

Raport powstał 23 minut temu, godzina 00:53 UTC
Wiatr 7 kt od południe
Temperatura 31°C
Wilgotność 52%
Ciśnienie 1011 hPa
Widzialność: 16.1 km
Mało chmury na wysokości 5500 ft

METAR: KDFW 200053Z 17007KT 10SM FEW055 31/20 A2985 RMK T03110200

czas: 20:16 (01:16 UTC)

Prognoza

Raport powstał 1 godzina i 53 minut temu, godzina 23:23 UTC
Prognoza ważna od 20 godzina 00 UTC do 21 godzina 06 UTC
Wiatr 10 kt od południe
Widzialność: 10 km
Mało chmury na wysokości 4000 ft
Od 20 godzina 1700 UTC
Wiatr 13 kt od południe
Widzialność: 10 km
Rozproszone chmury na wysokości 2500 ft
Przerywane chmury na wysokości 10000 ft

TAF: KDFW 192323Z 2000/2106 17010KT P6SM FEW040 FM201700 18013KT P6SM SCT025 BKN100

Obserwacja i prognoza pogody dla ponad 4000 lotnisk (raport METAR i TAF).

Dostępne stacje oznaczono żółtymi i czerwonymi punktami na mapie.

Najedź kursorem aby zobaczyć nazwę stacji.

Kliknij aby zobaczyć obserwacje i prognozy pogody.

Aby zmienić mapę: kliknij na zielony przycisk z czarnym krzyżykiem, aby powiększyć; na zielony przycisk z myślnikiem, aby pomniejszyć; na zielone strzałki, aby przejść do map sąsiednich.


METAR-TAF: